Time,TemperatureF,DewpointF,PressureIn,WindDirection,WindDirectionDegrees,WindSpeedMPH,WindSpeedGustMPH,Humidity,HourlyPrecipIn,Conditions,Clouds,dailyrainin,SolarRadiationWatts/m^2,SoftwareType,DateUTC
2013-04-02 00:00:00,26.4,17.6,29.81,West,281,6.1,8.1,69,0.00,BKN,,0.03,0.0,WeatherDisplay:10.37,2013-04-02 04:00:00,
2013-04-02 00:05:00,26.2,17.4,29.81,West,263,5.9,9.2,69,0.00,RA,BKN,0.00,0.0,WeatherDisplay:10.37,2013-04-02 04:05:00,
2013-04-02 00:10:00,26.2,17.4,29.81,WSW,245,5.8,9.2,69,0.00,SCT,BKN,0.00,0.0,WeatherDisplay:10.37,2013-04-02 04:10:00,
2013-04-02 00:15:00,26.1,17.3,29.81,SW,223,6.2,10.4,69,0.00,SCT,BKN,0.00,0.0,WeatherDisplay:10.37,2013-04-02 04:15:00,
2013-04-02 00:20:00,26.4,17.3,29.81,WSW,250,6.1,11.5,68,0.00,SCT,BKN,0.00,0.0,WeatherDisplay:10.37,2013-04-02 04:20:00,
2013-04-02 00:25:00,26.2,17.1,29.81,West,269,5.5,10.4,68,0.00,SCT,BKN,0.00,0.0,WeatherDisplay:10.37,2013-04-02 04:25:00,
2013-04-02 00:30:00,26.1,17.3,29.81,West,279,7.6,9.8,69,0.00,SCT,BKN,0.00,0.0,WeatherDisplay:10.37,2013-04-02 04:30:00,
2013-04-02 00:35:00,26.2,17.8,29.81,SW,229,4.2,7.0,70,0.00,SCT,BKN,0.00,0.0,WeatherDisplay:10.37,2013-04-02 04:35:00,
2013-04-02 00:40:00,26.4,18.0,29.81,SW,236,4.5,5.8,70,0.00,SCT,BKN,0.00,0.0,WeatherDisplay:10.37,2013-04-02 04:40:00,
2013-04-02 00:45:00,25.9,17.4,29.81,WNW,287,6.1,9.2,70,0.00,SCT,BKN,0.00,0.0,WeatherDisplay:10.37,2013-04-02 04:45:00,
2013-04-02 00:50:00,26.1,17.6,29.81,West,263,6.1,9.2,70,0.00,SCT,BKN,0.00,0.0,WeatherDisplay:10.37,2013-04-02 04:50:00,
2013-04-02 00:55:00,25.7,17.6,29.81,WSW,237,5.2,6.6,71,0.00,SCT,BKN,0.00,0.0,WeatherDisplay:10.37,2013-04-02 04:55:00,
2013-04-02 01:00:00,25.7,17.3,29.81,SW,231,4.7,6.9,70,0.00,SCT,BKN,0.00,0.0,WeatherDisplay:10.37,2013-04-02 05:00:00,
2013-04-02 01:05:00,25.9,17.4,29.82,SW,231,6.0,9.2,70,0.00,SCT,BKN,0.00,0.0,WeatherDisplay:10.37,2013-04-02 05:05:00,
2013-04-02 01:10:00,26.1,17.6,29.81,SW,223,3.4,5.8,70,0.00,SCT,BKN,0.00,0.0,WeatherDisplay:10.37,2013-04-02 05:10:00,
2013-04-02 01:15:00,25.9,17.4,29.81,SW,234,4.5,6.9,70,0.00,SCT,BKN,0.00,0.0,WeatherDisplay:10.37,2013-04-02 05:15:00,
2013-04-02 01:20:00,25.7,17.3,29.82,West,279,4.3,6.9,70,0.00,SCT,BKN,0.00,0.0,WeatherDisplay:10.37,2013-04-02 05:20:00,
2013-04-02 01:25:00,25.9,17.4,29.82,SW,232,5.4,8.1,70,0.00,SCT,BKN,0.00,0.0,WeatherDisplay:10.37,2013-04-02 05:25:00,
2013-04-02 01:30:00,25.5,17.1,29.82,WSW,245,4.6,9.2,70,0.00,SCT,BKN,0.00,0.0,WeatherDisplay:10.37,2013-04-02 05:30:00,
2013-04-02 01:35:00,25.5,17.1,29.82,WSW,250,6.2,9.2,70,0.00,SCT,BKN,0.00,0.0,WeatherDisplay:10.37,2013-04-02 05:35:00,
2013-04-02 01:40:00,25.2,16.7,29.81,WSW,248,5.6,8.1,70,0.00,SCT,BKN,0.00,0.0,WeatherDisplay:10.37,2013-04-02 05:40:00,
2013-04-02 01:45:00,25.5,16.4,29.81,WNW,294,6.5,9.2,68,0.00,SCT,BKN,0.00,0.0,WeatherDisplay:10.37,2013-04-02 05:45:00,
2013-04-02 01:50:00,25.5,16.4,29.82,SSW,193,6.0,9.2,68,0.00,SCT,BKN,0.00,0.0,WeatherDisplay:10.37,2013-04-02 05:50:00,
2013-04-02 01:55:00,25.2,16.7,29.82,West,276,7.5,9.2,70,0.00,SCT,BKN,0.00,0.0,WeatherDisplay:10.37,2013-04-02 05:55:00,
2013-04-02 02:00:00,25.2,17.1,29.82,WSW,250,6.7,11.5,71,0.00,SCT,BKN,0.00,0.0,WeatherDisplay:10.37,2013-04-02 06:00:00,
2013-04-02 02:05:00,25.5,17.7,29.82,NNW,339,6.3,9.7,72,0.00,SCT,BKN,0.00,0.0,WeatherDisplay:10.37,2013-04-02 06:05:00,
2013-04-02 02:10:00,25.3,16.9,29.82,SW,236,6.7,9.2,70,0.00,SCT,BKN,0.00,0.0,WeatherDisplay:10.37,2013-04-02 06:10:00,
2013-04-02 02:15:00,25.5,17.1,29.81,WSW,251,5.2,8.1,70,0.00,SCT,BKN,0.00,0.0,WeatherDisplay:10.37,2013-04-02 06:15:00,
2013-04-02 02:20:00,25.3,16.9,29.81,WSW,244,6.0,9.2,70,0.00,SCT,BKN,0.00,0.0,WeatherDisplay:10.37,2013-04-02 06:20:00,
2013-04-02 02:25:00,25.5,16.8,29.81,West,270,5.3,9.2,69,0.00,SCT,BKN,0.00,0.0,WeatherDisplay:10.37,2013-04-02 06:25:00,
2013-04-02 02:30:00,25.3,16.2,29.81,WSW,250,5.1,6.9,68,0.00,SCT,BKN,0.00,0.0,WeatherDisplay:10.37,2013-04-02 06:30:00,
2013-04-02 02:35:00,25.2,15.7,29.81,WSW,257,7.1,9.2,67,0.00,SCT,BKN,0.00,0.0,WeatherDisplay:10.37,2013-04-02 06:35:00,
2013-04-02 02:40:00,24.8,15.7,29.81,West,273,8.8,14.4,68,0.00,SCT,BKN,0.00,0.0,WeatherDisplay:10.37,2013-04-02 06:40:00,
2013-04-02 02:45:00,25.2,15.7,29.81,SW,236,5.6,10.4,67,0.00,SCT,BKN,0.00,0.0,WeatherDisplay:10.37,2013-04-02 06:45:00,
2013-04-02 02:50:00,25.2,15.7,29.81,West,271,5.3,9.2,67,0.00,SCT,BKN,0.00,0.0,WeatherDisplay:10.37,2013-04-02 06:50:00,
2013-04-02 02:55:00,25.0,16.2,29.81,SW,218,6.9,8.1,69,0.00,SCT,BKN,0.00,0.0,WeatherDisplay:10.37,2013-04-02 06:55:00,
2013-04-02 03:00:00,25.2,16.1,29.81,WNW,283,6.0,10.4,68,0.00,SCT,BKN,0.00,0.0,WeatherDisplay:10.37,2013-04-02 07:00:00,
2013-04-02 03:05:00,25.0,15.9,29.81,WSW,244,4.6,6.9,68,0.00,SCT,BKN,0.00,0.0,WeatherDisplay:10.37,2013-04-02 07:05:00,
2013-04-02 03:10:00,25.0,16.2,29.81,WSW,257,4.2,6.9,69,0.00,SCT,BKN,0.00,0.0,WeatherDisplay:10.37,2013-04-02 07:10:00,
2013-04-02 03:15:00,24.8,16.1,29.81,SW,222,4.5,9.2,69,0.00,SCT,BKN,0.00,0.0,WeatherDisplay:10.37,2013-04-02 07:15:00,
2013-04-02 03:20:00,24.8,16.1,29.81,West,262,5.8,5.8,69,0.00,SCT,BKN,0.00,0.0,WeatherDisplay:10.37,2013-04-02 07:20:00,
2013-04-02 03:25:00,24.6,16.2,29.81,WSW,247,6.2,10.4,70,0.00,SCT,BKN,0.00,0.0,WeatherDisplay:10.37,2013-04-02 07:25:00,
2013-04-02 03:30:00,25.0,16.6,29.81,SW,234,4.1,5.8,70,0.00,SCT,BKN,0.00,0.0,WeatherDisplay:10.37,2013-04-02 07:30:00,
2013-04-02 03:35:00,24.8,16.4,29.81,WSW,253,5.5,8.1,70,0.00,SCT,BKN,0.00,0.0,WeatherDisplay:10.37,2013-04-02 07:35:00,
2013-04-02 03:40:00,24.8,16.4,29.81,West,279,5.1,6.9,70,0.00,SCT,BKN,0.00,0.0,WeatherDisplay:10.37,2013-04-02 07:40:00,
2013-04-02 03:45:00,24.6,16.2,29.81,SSW,213,5.2,8.1,70,0.00,SCT,BKN,0.00,0.0,WeatherDisplay:10.37,2013-04-02 07:45:00,
2013-04-02 03:50:00,24.8,15.7,29.81,WNW,284,5.7,8.1,68,0.00,SCT,BKN,0.00,0.0,WeatherDisplay:10.37,2013-04-02 07:50:00,
2013-04-02 03:55:00,24.4,15.4,29.81,WSW,254,6.0,6.9,68,0.00,SCT,BKN,0.00,0.0,WeatherDisplay:10.37,2013-04-02 07:55:00,
2013-04-02 04:00:00,24.4,15.4,29.81,WNW,291,7.3,10.4,68,0.00,SCT,BKN,0.00,0.0,WeatherDisplay:10.37,2013-04-02 08:00:00,
2013-04-02 04:05:00,24.3,15.9,29.81,WSW,247,4.6,6.9,70,0.00,SCT,BKN,0.00,0.0,WeatherDisplay:10.37,2013-04-02 08:05:00,
2013-04-02 04:10:00,24.3,15.9,29.81,WSW,257,5.5,9.2,70,0.00,SCT,BKN,0.00,0.0,WeatherDisplay:10.37,2013-04-02 08:10:00,
2013-04-02 04:15:00,25.0,16.6,29.81,WSW,257,2.8,4.6,70,0.00,SCT,BKN,0.00,0.0,WeatherDisplay:10.37,2013-04-02 08:15:00,
2013-04-02 04:20:00,24.3,15.9,29.81,SSW,206,4.5,8.1,70,0.00,SCT,BKN,0.00,0.0,WeatherDisplay:10.37,2013-04-02 08:20:00,
2013-04-02 04:25:00,24.3,15.9,29.81,WSW,239,5.4,6.9,70,0.00,SCT,BKN,0.00,0.0,WeatherDisplay:10.37,2013-04-02 08:25:00,
2013-04-02 04:30:00,24.4,16.4,29.81,SW,232,5.2,8.1,71,0.00,SCT,BKN,0.00,0.0,WeatherDisplay:10.37,2013-04-02 08:30:00,
2013-04-02 04:35:00,24.3,16.2,29.81,SSW,212,5.2,6.9,71,0.00,SCT,BKN,0.00,0.0,WeatherDisplay:10.37,2013-04-02 08:35:00,
2013-04-02 04:40:00,24.4,16.4,29.81,SW,234,4.5,8.1,71,0.00,SCT,BKN,0.00,0.0,WeatherDisplay:10.37,2013-04-02 08:40:00,
2013-04-02 04:45:00,24.3,17.2,29.81,SW,227,5.5,9.2,74,0.00,SCT,BKN,0.00,0.0,WeatherDisplay:10.37,2013-04-02 08:45:00,
2013-04-02 04:50:00,24.3,17.2,29.81,SW,222,5.3,8.1,74,0.00,SCT,BKN,0.00,0.0,WeatherDisplay:10.37,2013-04-02 08:50:00,
2013-04-02 04:55:00,23.7,16.6,29.81,SW,234,6.3,8.1,74,0.00,SCT,BKN,0.00,0.0,WeatherDisplay:10.37,2013-04-02 08:55:00,
2013-04-02 05:00:00,23.9,16.8,29.82,SW,221,5.2,6.9,74,0.00,SCT,BKN,0.00,0.0,WeatherDisplay:10.37,2013-04-02 09:00:00,
2013-04-02 05:05:00,23.9,16.8,29.81,SSW,203,5.2,8.1,74,0.00,SCT,BKN,0.00,0.0,WeatherDisplay:10.37,2013-04-02 09:05:00,
2013-04-02 05:10:00,23.7,16.6,29.82,WSW,245,6.6,9.2,74,0.00,SCT,BKN,0.00,0.0,WeatherDisplay:10.37,2013-04-02 09:10:00,
2013-04-02 05:15:00,23.7,17.0,29.82,SW,218,5.6,8.1,75,0.00,SCT,BKN,0.00,0.0,WeatherDisplay:10.37,2013-04-02 09:15:00,
2013-04-02 05:20:00,23.7,17.0,29.81,SW,223,6.9,10.4,75,0.00,SCT,BKN,0.00,0.0,WeatherDisplay:10.37,2013-04-02 09:20:00,
2013-04-02 05:25:00,23.7,17.0,29.82,SW,233,5.6,7.5,75,0.00,SCT,BKN,0.00,0.0,WeatherDisplay:10.37,2013-04-02 09:25:00,
2013-04-02 05:30:00,23.4,16.6,29.82,SSW,202,6.1,8.7,75,0.00,SCT,BKN,0.00,0.0,WeatherDisplay:10.37,2013-04-02 09:30:00,
2013-04-02 05:35:00,23.4,16.6,29.82,SW,219,5.5,8.1,75,0.00,SCT,BKN,0.00,0.0,WeatherDisplay:10.37,2013-04-02 09:35:00,
2013-04-02 05:40:00,23.2,16.4,29.83,SSW,209,7.2,8.9,75,0.00,SCT,BKN,0.00,0.0,WeatherDisplay:10.37,2013-04-02 09:40:00,
2013-04-02 05:45:00,23.4,16.6,29.83,SW,236,6.2,7.7,75,0.00,SCT,BKN,0.00,0.0,WeatherDisplay:10.37,2013-04-02 09:45:00,
2013-04-02 05:50:00,23.2,16.1,29.83,West,266,5.7,8.1,74,0.00,SCT,BKN,0.00,0.0,WeatherDisplay:10.37,2013-04-02 09:50:00,
2013-04-02 05:55:00,23.4,16.3,29.83,SW,236,5.5,8.1,74,0.00,SCT,BKN,0.00,0.0,WeatherDisplay:10.37,2013-04-02 09:55:00,
2013-04-02 06:00:00,23.2,16.4,29.83,SSW,208,5.5,9.4,75,0.00,SCT,BKN,0.00,0.0,WeatherDisplay:10.37,2013-04-02 10:00:00,
2013-04-02 06:05:00,23.2,16.1,29.83,SW,214,7.4,7.4,74,0.00,FEW,BKN,0.00,0.0,WeatherDisplay:10.37,2013-04-02 10:05:00,
2013-04-02 06:10:00,23.2,15.8,29.83,West,268,6.0,10.4,73,0.00,FEW,BKN,0.00,0.0,WeatherDisplay:10.37,2013-04-02 10:10:00,
2013-04-02 06:15:00,23.2,15.8,29.83,SW,219,6.7,9.2,73,0.00,FEW,BKN,0.00,0.0,WeatherDisplay:10.37,2013-04-02 10:15:00,
2013-04-02 06:20:00,23.2,15.8,29.83,WSW,237,6.2,8.1,73,0.00,FEW,BKN,0.00,0.0,WeatherDisplay:10.37,2013-04-02 10:20:00,
2013-04-02 06:25:00,23.4,16.0,29.83,SW,233,8.0,11.5,73,0.00,FEW,BKN,0.00,0.0,WeatherDisplay:10.37,2013-04-02 10:25:00,
2013-04-02 06:30:00,23.2,16.1,29.84,WSW,251,6.1,9.2,74,0.00,FEW,BKN,0.00,0.0,WeatherDisplay:10.37,2013-04-02 10:30:00,
2013-04-02 06:35:00,23.4,16.0,29.83,WSW,245,7.2,10.4,73,0.00,FEW,BKN,0.00,0.0,WeatherDisplay:10.37,2013-04-02 10:35:00,
2013-04-02 06:40:00,23.2,16.4,29.84,WSW,253,8.1,10.4,75,0.00,FEW,BKN,0.00,0.0,WeatherDisplay:10.37,2013-04-02 10:40:00,
2013-04-02 06:45:00,23.4,17.2,29.84,SW,222,7.1,12.7,77,0.00,FEW,BKN,0.00,0.0,WeatherDisplay:10.37,2013-04-02 10:45:00,
2013-04-02 06:50:00,23.4,16.9,29.84,WSW,240,6.8,9.3,76,0.00,FEW,BKN,0.00,0.0,WeatherDisplay:10.37,2013-04-02 10:50:00,
2013-04-02 06:55:00,23.7,17.3,29.84,WSW,240,6.2,11.5,76,0.00,FEW,BKN,0.00,0.0,WeatherDisplay:10.37,2013-04-02 10:55:00,
2013-04-02 07:00:00,23.4,16.9,29.85,SW,216,7.4,9.2,76,0.00,FEW,BKN,0.00,0.0,WeatherDisplay:10.37,2013-04-02 11:00:00,
2013-04-02 07:05:00,23.4,17.2,29.85,WSW,252,6.0,11.5,77,0.00,SCT,BKN,0.00,0.0,WeatherDisplay:10.37,2013-04-02 11:05:00,
2013-04-02 07:10:00,23.4,16.9,29.85,SW,232,6.9,7.7,76,0.00,SCT,BKN,0.00,0.0,WeatherDisplay:10.37,2013-04-02 11:10:00,
2013-04-02 07:15:00,23.4,17.2,29.85,SW,218,7.9,9.2,77,0.00,SCT,BKN,0.00,0.0,WeatherDisplay:10.37,2013-04-02 11:15:00,
2013-04-02 07:20:00,23.5,17.4,29.85,SW,219,7.6,12.7,77,0.00,SCT,BKN,0.00,0.0,WeatherDisplay:10.37,2013-04-02 11:20:00,
2013-04-02 07:25:00,23.7,17.9,29.85,SW,235,7.1,9.2,78,0.00,SCT,BKN,0.00,0.0,WeatherDisplay:10.37,2013-04-02 11:25:00,
2013-04-02 07:30:00,23.5,17.4,29.85,WSW,258,7.3,10.4,77,0.00,SCT,BKN,0.00,0.0,WeatherDisplay:10.37,2013-04-02 11:30:00,
2013-04-02 07:35:00,23.4,17.2,29.86,West,266,6.8,11.5,77,0.00,SCT,BKN,0.00,0.0,WeatherDisplay:10.37,2013-04-02 11:35:00,
2013-04-02 07:40:00,23.5,17.7,29.85,WSW,239,6.1,10.4,78,0.00,SCT,BKN,0.00,0.0,WeatherDisplay:10.37,2013-04-02 11:40:00,
2013-04-02 07:45:00,24.1,17.9,29.86,SW,235,4.9,8.1,77,0.00,SCT,BKN,0.00,0.0,WeatherDisplay:10.37,2013-04-02 11:45:00,
2013-04-02 07:50:00,23.9,17.4,29.86,SW,235,7.4,10.8,76,0.00,SCT,BKN,0.00,0.0,WeatherDisplay:10.37,2013-04-02 11:50:00,
2013-04-02 07:55:00,24.1,17.3,29.86,SW,234,7.2,10.0,75,0.00,SCT,BKN,0.00,0.0,WeatherDisplay:10.37,2013-04-02 11:55:00,
2013-04-02 08:00:00,24.1,17.0,29.86,SW,231,6.4,12.7,74,0.00,SCT,BKN,0.00,94.6,WeatherDisplay:10.37,2013-04-02 12:00:00,
2013-04-02 08:05:00,24.1,17.0,29.87,SSW,210,8.1,12.7,74,0.00,FEW,BKN,0.00,119.0,WeatherDisplay:10.37,2013-04-02 12:05:00,
2013-04-02 08:10:00,24.3,17.2,29.87,WNW,292,6.7,11.5,74,0.00,FEW,BKN,0.00,124.1,WeatherDisplay:10.37,2013-04-02 12:10:00,
2013-04-02 08:15:00,24.3,17.2,29.87,WSW,237,7.8,10.4,74,0.00,FEW,BKN,0.00,153.6,WeatherDisplay:10.37,2013-04-02 12:15:00,
2013-04-02 08:20:00,24.3,17.2,29.87,SSW,202,6.6,13.8,74,0.00,FEW,BKN,0.00,168.8,WeatherDisplay:10.37,2013-04-02 12:20:00,
2013-04-02 08:25:00,24.3,17.2,29.87,WSW,246,6.9,11.5,74,0.00,FEW,BKN,0.00,292.9,WeatherDisplay:10.37,2013-04-02 12:25:00,
2013-04-02 08:30:00,24.3,17.5,29.88,SW,222,8.2,12.7,75,0.00,FEW,BKN,0.00,201.4,WeatherDisplay:10.37,2013-04-02 12:30:00,
2013-04-02 08:35:00,24.4,17.3,29.88,SW,226,8.5,11.5,74,0.00,FEW,BKN,0.00,344.8,WeatherDisplay:10.37,2013-04-02 12:35:00,
2013-04-02 08:40:00,24.6,18.1,29.88,WSW,240,6.9,6.9,76,0.00,FEW,BKN,0.00,404.8,WeatherDisplay:10.37,2013-04-02 12:40:00,
2013-04-02 08:45:00,24.3,17.5,29.88,SSW,211,8.8,12.7,75,0.00,FEW,BKN,0.00,196.3,WeatherDisplay:10.37,2013-04-02 12:45:00,
2013-04-02 08:51:00,25.0,17.9,29.88,West,270,8.1,11.6,74,0.00,FEW,BKN,0.00,539.0,WeatherDisplay:10.37,2013-04-02 12:51:00,
2013-04-02 08:56:00,24.8,17.1,29.88,WSW,237,8.5,12.7,72,0.00,FEW,BKN,0.00,608.2,WeatherDisplay:10.37,2013-04-02 12:56:00,
2013-04-02 09:01:00,25.5,17.4,29.88,WSW,244,8.0,12.7,71,0.00,FEW,BKN,0.00,570.5,WeatherDisplay:10.37,2013-04-02 13:01:00,
2013-04-02 09:06:00,26.1,18.3,29.89,WSW,237,6.3,7.6,72,0.00,SCT,BKN,0.00,228.8,WeatherDisplay:10.37,2013-04-02 13:06:00,
2013-04-02 09:11:00,26.1,18.3,29.89,West,275,4.4,6.9,72,0.00,SCT,BKN,0.00,752.6,WeatherDisplay:10.37,2013-04-02 13:11:00,
2013-04-02 09:16:00,25.9,17.1,29.88,SSW,213,9.8,15.0,69,0.00,SCT,BKN,0.00,300.0,WeatherDisplay:10.37,2013-04-02 13:16:00,
2013-04-02 09:21:00,26.1,17.3,29.89,WSW,252,7.8,12.7,69,0.00,SCT,BKN,0.00,342.7,WeatherDisplay:10.37,2013-04-02 13:21:00,
2013-04-02 09:26:00,25.9,17.1,29.88,West,279,9.1,12.7,69,0.00,SCT,BKN,0.00,173.9,WeatherDisplay:10.37,2013-04-02 13:26:00,
2013-04-02 09:31:00,26.2,17.4,29.88,WSW,255,6.8,11.5,69,0.00,SCT,BKN,0.00,298.0,WeatherDisplay:10.37,2013-04-02 13:31:00,
2013-04-02 09:36:00,26.4,17.3,29.88,SW,220,6.7,11.5,68,0.00,SCT,BKN,0.00,308.2,WeatherDisplay:10.37,2013-04-02 13:36:00,
2013-04-02 09:41:00,26.4,16.6,29.88,WSW,245,10.7,17.3,66,0.00,SCT,BKN,0.00,238.0,WeatherDisplay:10.37,2013-04-02 13:41:00,
2013-04-02 09:46:00,26.8,16.6,29.88,WSW,242,9.4,12.7,65,0.00,SCT,BKN,0.00,325.4,WeatherDisplay:10.37,2013-04-02 13:46:00,
2013-04-02 09:51:00,27.0,16.8,29.88,WNW,302,6.3,11.5,65,0.00,SCT,BKN,0.00,287.8,WeatherDisplay:10.37,2013-04-02 13:51:00,
2013-04-02 09:56:00,27.0,16.0,29.89,NW,322,8.0,12.7,63,0.00,SCT,BKN,0.00,243.1,WeatherDisplay:10.37,2013-04-02 13:56:00,
2013-04-02 10:01:00,26.4,15.2,29.88,SW,236,9.0,15.0,62,0.00,SCT,BKN,0.00,230.9,WeatherDisplay:10.37,2013-04-02 14:01:00,
2013-04-02 10:06:00,26.8,15.1,29.88,WNW,292,7.8,12.5,61,0.00,BKN,,0.00,184.1,WeatherDisplay:10.37,2013-04-02 14:06:00,
2013-04-02 10:11:00,27.1,15.8,29.88,SW,214,6.3,10.2,62,0.00,BKN,,0.00,208.5,WeatherDisplay:10.37,2013-04-02 14:11:00,
2013-04-02 10:16:00,27.5,15.8,29.89,West,271,6.4,13.8,61,0.00,BKN,,0.00,539.0,WeatherDisplay:10.37,2013-04-02 14:16:00,
2013-04-02 10:21:00,27.5,15.8,29.89,WSW,258,8.2,11.5,61,0.00,BKN,,0.00,506.5,WeatherDisplay:10.37,2013-04-02 14:21:00,
2013-04-02 10:26:00,27.9,15.8,29.89,West,275,9.6,13.8,60,0.00,BKN,,0.00,846.1,WeatherDisplay:10.37,2013-04-02 14:26:00,
2013-04-02 10:31:00,28.2,17.2,29.89,NW,309,10.4,12.3,63,0.00,BKN,,0.00,797.3,WeatherDisplay:10.37,2013-04-02 14:31:00,
2013-04-02 10:36:00,27.7,16.0,29.89,SW,236,6.7,12.7,61,0.00,BKN,,0.00,213.6,WeatherDisplay:10.37,2013-04-02 14:36:00,
2013-04-02 10:41:00,27.7,16.0,29.89,WSW,257,8.0,12.7,61,0.00,BKN,,0.00,384.4,WeatherDisplay:10.37,2013-04-02 14:41:00,
2013-04-02 10:46:00,27.9,15.8,29.89,NW,305,7.6,10.4,60,0.00,BKN,,0.00,251.2,WeatherDisplay:10.37,2013-04-02 14:46:00,
2013-04-02 10:51:00,28.4,15.9,29.89,SW,228,7.2,16.1,59,0.00,BKN,,0.00,764.8,WeatherDisplay:10.37,2013-04-02 14:51:00,
2013-04-02 10:56:00,28.2,15.3,29.89,West,266,10.8,19.6,58,0.00,BKN,,0.00,232.9,WeatherDisplay:10.37,2013-04-02 14:56:00,
2013-04-02 11:01:00,28.2,15.3,29.89,South,176,9.0,16.0,58,0.00,BKN,,0.00,273.6,WeatherDisplay:10.37,2013-04-02 15:01:00,
2013-04-02 11:06:00,28.6,16.1,29.89,West,262,7.1,9.2,59,0.00,-SN,BKN,0.00,411.9,WeatherDisplay:10.37,2013-04-02 15:06:00,
2013-04-02 11:11:00,28.8,15.4,29.89,West,262,8.6,17.3,57,0.00,-SN,BKN,0.00,525.8,WeatherDisplay:10.37,2013-04-02 15:11:00,
2013-04-02 11:16:00,28.8,15.0,29.89,West,271,8.8,13.8,56,0.00,-SN,BKN,0.00,282.7,WeatherDisplay:10.37,2013-04-02 15:16:00,
2013-04-02 11:21:00,29.3,16.3,29.89,NW,313,7.4,18.9,58,0.00,-SN,BKN,0.00,362.1,WeatherDisplay:10.37,2013-04-02 15:21:00,
2013-04-02 11:26:00,28.9,15.2,29.89,WNW,302,9.9,18.4,56,0.00,-SN,BKN,0.00,273.6,WeatherDisplay:10.37,2013-04-02 15:26:00,
2013-04-02 11:31:00,28.8,15.8,29.89,WNW,282,7.3,13.8,58,0.00,-SN,BKN,0.00,263.4,WeatherDisplay:10.37,2013-04-02 15:31:00,
2013-04-02 11:36:00,28.8,15.8,29.89,West,260,10.5,18.4,58,0.00,-SN,BKN,0.00,377.3,WeatherDisplay:10.37,2013-04-02 15:36:00,
2013-04-02 11:41:00,29.5,16.5,29.89,SSW,205,7.2,13.6,58,0.00,-SN,BKN,0.00,387.5,WeatherDisplay:10.37,2013-04-02 15:41:00,
2013-04-02 11:46:00,28.9,16.0,29.89,WSW,239,8.6,15.0,58,0.00,-SN,BKN,0.00,489.2,WeatherDisplay:10.37,2013-04-02 15:46:00,
2013-04-02 11:51:00,29.5,17.7,29.89,NW,317,10.6,16.1,61,0.00,-SN,BKN,0.00,516.6,WeatherDisplay:10.37,2013-04-02 15:51:00,
2013-04-02 11:56:00,29.1,16.2,29.89,SSW,193,9.8,16.1,58,0.00,-SN,BKN,0.00,277.6,WeatherDisplay:10.37,2013-04-02 15:56:00,
2013-04-02 12:01:00,29.5,16.9,29.89,West,268,8.6,11.5,59,0.00,OVC,BKN,0.00,441.4,WeatherDisplay:10.37,2013-04-02 16:01:00,
2013-04-02 12:06:00,30.0,17.4,29.89,WNW,294,6.8,8.1,59,0.00,OVC,BKN,0.00,484.1,WeatherDisplay:10.37,2013-04-02 16:06:00,
2013-04-02 12:11:00,30.0,17.8,29.89,West,261,7.8,12.7,60,0.00,OVC,BKN,0.00,268.5,WeatherDisplay:10.37,2013-04-02 16:11:00,
2013-04-02 12:16:00,28.9,16.8,29.89,West,262,9.8,12.7,60,0.00,OVC,BKN,0.00,370.2,WeatherDisplay:10.37,2013-04-02 16:16:00,
2013-04-02 12:22:00,29.1,17.7,29.89,WSW,253,9.2,16.1,62,0.00,OVC,BKN,0.00,645.8,WeatherDisplay:10.37,2013-04-02 16:22:00,
2013-04-02 12:27:00,29.8,19.1,29.89,WSW,241,6.3,9.2,64,0.00,OVC,BKN,0.00,558.3,WeatherDisplay:10.37,2013-04-02 16:27:00,
2013-04-02 12:32:00,31.5,20.7,29.89,SW,235,8.7,13.8,64,0.00,OVC,BKN,0.00,516.6,WeatherDisplay:10.37,2013-04-02 16:32:00,
2013-04-02 12:38:00,29.7,17.1,29.89,SW,231,9.1,15.0,59,0.00,OVC,BKN,0.00,325.4,WeatherDisplay:10.37,2013-04-02 16:38:00,
2013-04-02 12:43:00,29.8,19.1,29.89,WSW,242,8.8,13.7,64,0.00,OVC,BKN,0.00,285.8,WeatherDisplay:10.37,2013-04-02 16:43:00,
2013-04-02 12:48:00,29.5,21.6,29.89,SSW,208,8.0,12.7,72,0.00,OVC,BKN,0.00,335.6,WeatherDisplay:10.37,2013-04-02 16:48:00,
2013-04-02 12:53:00,28.8,19.9,29.89,SSW,202,9.4,12.7,69,0.00,OVC,BKN,0.00,206.5,WeatherDisplay:10.37,2013-04-02 16:53:00,
2013-04-02 12:58:00,28.0,21.8,29.89,WSW,249,7.0,8.1,77,0.00,OVC,BKN,0.00,275.6,WeatherDisplay:10.37,2013-04-02 16:58:00,
2013-04-02 13:03:00,28.4,21.2,29.89,SSW,210,7.8,15.0,74,0.00,-SN,BKN,0.00,173.9,WeatherDisplay:10.37,2013-04-02 17:03:00,
2013-04-02 13:08:00,28.8,20.9,29.89,SW,234,10.2,15.6,72,0.00,-SN,BKN,0.00,292.9,WeatherDisplay:10.37,2013-04-02 17:08:00,
2013-04-02 13:13:00,29.1,20.2,29.89,SW,221,9.8,16.0,69,0.00,-SN,BKN,0.00,210.5,WeatherDisplay:10.37,2013-04-02 17:13:00,
2013-04-02 13:18:00,30.0,20.7,29.88,WSW,252,9.0,11.8,68,0.00,-SN,BKN,0.00,823.8,WeatherDisplay:10.37,2013-04-02 17:18:00,
2013-04-02 13:24:00,31.6,18.9,29.88,SW,221,9.0,16.1,59,0.00,-SN,BKN,0.00,749.5,WeatherDisplay:10.37,2013-04-02 17:24:00,
2013-04-02 13:29:00,30.6,17.5,29.87,SW,227,10.3,13.8,58,0.00,-SN,BKN,0.00,230.9,WeatherDisplay:10.37,2013-04-02 17:29:00,
2013-04-02 13:34:00,30.4,20.4,29.88,SW,235,9.4,15.0,66,0.00,-SN,BKN,0.00,223.7,WeatherDisplay:10.37,2013-04-02 17:34:00,
2013-04-02 13:39:00,29.1,21.2,29.88,SSW,200,11.4,17.3,72,0.00,-SN,BKN,0.00,461.7,WeatherDisplay:10.37,2013-04-02 17:39:00,
2013-04-02 13:44:00,29.7,24.5,29.88,SW,226,7.6,11.5,81,0.00,-SN,BKN,0.00,477.0,WeatherDisplay:10.37,2013-04-02 17:44:00,
2013-04-02 13:49:00,29.5,22.5,29.88,SW,227,9.6,15.0,75,0.00,-SN,BKN,0.00,243.1,WeatherDisplay:10.37,2013-04-02 17:49:00,
2013-04-02 13:54:00,29.1,21.9,29.88,SW,219,12.4,15.0,74,0.00,-SN,BKN,0.00,243.1,WeatherDisplay:10.37,2013-04-02 17:54:00,
2013-04-02 14:00:00,27.5,24.1,29.88,SSW,195,10.5,13.8,87,0.00,-SN,BKN,0.00,399.7,WeatherDisplay:10.37,2013-04-02 18:00:00,
2013-04-02 14:05:00,28.8,25.1,29.88,SW,223,8.4,15.0,86,0.00,-SN,BKN,0.00,563.4,WeatherDisplay:10.37,2013-04-02 18:05:00,
2013-04-02 14:10:00,29.1,22.5,29.88,West,272,13.4,19.6,76,0.00,-SN,BKN,0.00,451.5,WeatherDisplay:10.37,2013-04-02 18:10:00,
2013-04-02 14:15:00,28.9,22.9,29.88,SSW,210,11.8,15.0,78,0.00,-SN,BKN,0.00,258.3,WeatherDisplay:10.37,2013-04-02 18:15:00,
2013-04-02 14:20:00,28.8,23.7,29.88,WSW,257,11.4,15.0,81,0.00,-SN,BKN,0.00,794.3,WeatherDisplay:10.37,2013-04-02 18:20:00,
2013-04-02 14:25:00,30.0,23.4,29.88,SSW,198,11.2,18.4,76,0.00,-SN,BKN,0.00,699.7,WeatherDisplay:10.37,2013-04-02 18:25:00,
2013-04-02 14:30:00,30.4,23.4,29.88,SW,221,9.0,12.7,75,0.00,-SN,BKN,0.00,742.4,WeatherDisplay:10.37,2013-04-02 18:30:00,
2013-04-02 14:35:00,30.6,23.3,29.88,WSW,249,10.7,17.3,74,0.00,-SN,BKN,0.00,601.0,WeatherDisplay:10.37,2013-04-02 18:35:00,
2013-04-02 14:40:00,30.2,22.3,29.88,WSW,237,10.6,15.0,72,0.00,-SN,BKN,0.00,232.9,WeatherDisplay:10.37,2013-04-02 18:40:00,
2013-04-02 14:45:00,29.1,21.9,29.88,SW,226,10.4,13.8,74,0.00,-SN,BKN,0.00,203.4,WeatherDisplay:10.37,2013-04-02 18:45:00,
2013-04-02 14:50:00,28.2,23.7,29.89,WSW,252,10.7,15.0,83,0.00,-SN,BKN,0.00,253.2,WeatherDisplay:10.37,2013-04-02 18:50:00,
2013-04-02 14:55:00,28.4,25.8,29.88,SW,223,7.6,10.4,90,0.00,-SN,BKN,0.00,506.5,WeatherDisplay:10.37,2013-04-02 18:55:00,
2013-04-02 15:00:00,29.1,25.2,29.88,West,262,8.8,9.2,85,0.00,-SN,BKN,0.00,362.1,WeatherDisplay:10.37,2013-04-02 19:00:00,
2013-04-02 15:05:00,29.5,24.7,29.89,SW,214,7.6,16.1,82,0.00,-SN,BKN,0.00,251.2,WeatherDisplay:10.37,2013-04-02 19:05:00,
2013-04-02 15:10:00,28.6,24.6,29.88,SSW,211,10.0,12.7,85,0.00,-SN,BKN,0.00,389.5,WeatherDisplay:10.37,2013-04-02 19:10:00,
2013-04-02 15:15:00,29.7,24.5,29.88,West,268,8.7,10.4,81,0.00,-SN,BKN,0.00,260.4,WeatherDisplay:10.37,2013-04-02 19:15:00,
2013-04-02 15:20:00,29.8,23.5,29.88,WSW,249,8.5,13.8,77,0.00,-SN,BKN,0.00,163.7,WeatherDisplay:10.37,2013-04-02 19:20:00,
2013-04-02 15:25:00,29.7,25.1,29.88,SW,229,8.3,11.5,83,0.00,-SN,BKN,0.00,273.6,WeatherDisplay:10.37,2013-04-02 19:25:00,
2013-04-02 15:30:00,28.8,24.8,29.88,WSW,241,11.8,16.1,85,0.00,-SN,BKN,0.00,280.7,WeatherDisplay:10.37,2013-04-02 19:30:00,
2013-04-02 15:35:00,29.7,24.8,29.87,SW,226,9.2,18.4,82,0.00,-SN,BKN,0.00,406.8,WeatherDisplay:10.37,2013-04-02 19:35:00,
2013-04-02 15:40:00,30.4,24.6,29.87,SW,227,9.1,13.8,79,0.00,-SN,BKN,0.00,268.5,WeatherDisplay:10.37,2013-04-02 19:40:00,
2013-04-02 15:46:00,31.5,24.8,29.87,SW,228,8.4,11.5,76,0.00,-SN,BKN,0.00,238.0,WeatherDisplay:10.37,2013-04-02 19:46:00,
2013-04-02 15:51:00,30.6,24.5,29.88,WSW,238,7.3,10.4,78,0.00,-SN,BKN,0.00,129.2,WeatherDisplay:10.37,2013-04-02 19:51:00,
2013-04-02 15:57:00,28.8,24.5,29.88,SE,133,8.5,15.0,84,0.00,-SN,BKN,0.00,104.8,WeatherDisplay:10.37,2013-04-02 19:57:00,
2013-04-02 16:03:00,28.0,25.2,29.88,WSW,253,9.2,12.7,89,0.00,-SN,BKN,0.00,173.9,WeatherDisplay:10.37,2013-04-02 20:03:00,
2013-04-02 16:08:00,28.0,25.5,29.88,SW,233,7.1,10.4,90,0.00,-SN,BKN,0.00,179.0,WeatherDisplay:10.37,2013-04-02 20:08:00,
2013-04-02 16:13:00,28.2,26.2,29.88,SW,236,9.4,12.7,92,0.00,-SN,BKN,0.00,434.3,WeatherDisplay:10.37,2013-04-02 20:13:00,
2013-04-02 16:18:00,27.7,25.7,29.88,SW,218,11.4,15.0,92,0.00,-SN,BKN,0.00,206.5,WeatherDisplay:10.37,2013-04-02 20:18:00,
2013-04-02 16:23:00,27.7,25.7,29.89,SSW,205,9.8,15.0,92,0.00,-SN,BKN,0.00,84.4,WeatherDisplay:10.37,2013-04-02 20:23:00,
2013-04-02 16:28:00,27.9,26.1,29.89,SW,229,6.1,9.2,93,0.00,-SN,BKN,0.00,99.7,WeatherDisplay:10.37,2013-04-02 20:28:00,
2013-04-02 16:33:00,27.9,26.1,29.89,SW,232,10.3,13.8,93,0.00,-SN,BKN,0.00,315.3,WeatherDisplay:10.37,2013-04-02 20:33:00,
2013-04-02 16:38:00,27.7,25.9,29.89,WSW,240,9.6,12.7,93,0.00,-SN,BKN,0.00,141.4,WeatherDisplay:10.37,2013-04-02 20:38:00,
2013-04-02 16:43:00,28.2,26.7,29.89,WSW,237,7.3,11.5,94,0.00,-SN,BKN,0.00,238.0,WeatherDisplay:10.37,2013-04-02 20:43:00,
2013-04-02 16:48:00,28.2,26.2,29.89,WSW,241,9.6,12.7,92,0.00,-SN,BKN,0.00,148.5,WeatherDisplay:10.37,2013-04-02 20:48:00,
2013-04-02 16:53:00,27.9,25.8,29.89,SW,219,9.7,12.7,92,0.00,-SN,BKN,0.00,134.2,WeatherDisplay:10.37,2013-04-02 20:53:00,
2013-04-02 16:58:00,28.2,26.5,29.89,WSW,252,9.2,13.8,93,0.00,-SN,BKN,0.00,429.2,WeatherDisplay:10.37,2013-04-02 20:58:00,
2013-04-02 17:03:00,28.6,26.6,29.89,SSW,210,9.5,13.8,92,0.00,-SN,BKN,0.00,585.8,WeatherDisplay:10.37,2013-04-02 21:03:00,
2013-04-02 17:08:00,28.2,25.7,29.89,SW,214,9.4,12.7,90,0.00,-SN,BKN,0.00,136.3,WeatherDisplay:10.37,2013-04-02 21:08:00,
2013-04-02 17:13:00,28.2,25.7,29.89,SSW,210,9.8,12.7,90,0.00,-SN,BKN,0.00,99.7,WeatherDisplay:10.37,2013-04-02 21:13:00,
2013-04-02 17:18:00,27.9,26.4,29.90,SW,226,6.2,10.4,94,0.00,-SN,BKN,0.00,86.4,WeatherDisplay:10.37,2013-04-02 21:18:00,
2013-04-02 17:23:00,27.7,26.4,29.89,SW,236,7.8,11.5,95,0.00,-SN,BKN,0.00,74.2,WeatherDisplay:10.37,2013-04-02 21:23:00,
2013-04-02 17:29:00,27.9,26.6,29.89,WSW,242,7.3,11.5,95,0.00,-SN,BKN,0.00,91.5,WeatherDisplay:10.37,2013-04-02 21:29:00,
2013-04-02 17:34:00,27.9,26.4,29.91,SW,220,8.1,10.4,94,0.00,-SN,BKN,0.00,60.0,WeatherDisplay:10.37,2013-04-02 21:34:00,
2013-04-02 17:39:00,27.9,26.4,29.91,WSW,254,8.6,10.4,94,0.00,-SN,BKN,0.00,37.6,WeatherDisplay:10.37,2013-04-02 21:39:00,
2013-04-02 17:44:00,27.7,26.4,29.91,SW,229,7.3,16.1,95,0.00,-SN,BKN,0.00,77.3,WeatherDisplay:10.37,2013-04-02 21:44:00,
2013-04-02 17:49:00,27.7,26.7,29.91,SW,234,7.6,10.4,96,0.00,-SN,BKN,0.00,27.5,WeatherDisplay:10.37,2013-04-02 21:49:00,
2013-04-02 17:54:00,27.7,26.7,29.91,SW,236,7.7,10.4,96,0.00,-SN,BKN,0.00,39.7,WeatherDisplay:10.37,2013-04-02 21:54:00,
2013-04-02 17:59:00,27.9,26.9,29.91,WSW,240,5.6,9.2,96,0.00,-SN,BKN,0.00,161.7,WeatherDisplay:10.37,2013-04-02 21:59:00,
2013-04-02 18:04:00,28.0,26.5,29.91,SSW,213,6.3,9.2,94,0.00,BKN,,0.00,113.9,WeatherDisplay:10.37,2013-04-02 22:04:00,
2013-04-02 18:09:00,27.9,26.4,29.91,SSW,195,6.9,9.2,94,0.00,BKN,,0.00,77.3,WeatherDisplay:10.37,2013-04-02 22:09:00,
2013-04-02 18:14:00,28.2,26.5,29.92,SW,232,6.4,7.7,93,0.00,BKN,,0.00,72.2,WeatherDisplay:10.37,2013-04-02 22:14:00,
2013-04-02 18:19:00,27.9,25.6,29.92,WSW,238,8.3,10.4,91,0.00,BKN,,0.00,134.2,WeatherDisplay:10.37,2013-04-02 22:19:00,
2013-04-02 18:24:00,27.9,24.5,29.92,WSW,238,6.7,10.4,87,0.00,BKN,,0.00,60.0,WeatherDisplay:10.37,2013-04-02 22:24:00,
2013-04-02 18:29:00,28.6,22.9,29.92,SSW,210,5.8,9.2,79,0.00,BKN,,0.00,62.0,WeatherDisplay:10.37,2013-04-02 22:29:00,
2013-04-02 18:34:00,28.8,22.5,29.92,West,260,6.9,10.8,77,0.00,BKN,,0.00,124.1,WeatherDisplay:10.37,2013-04-02 22:34:00,
2013-04-02 18:39:00,29.1,21.5,29.92,SW,236,7.1,12.7,73,0.00,BKN,,0.00,96.6,WeatherDisplay:10.37,2013-04-02 22:39:00,
2013-04-02 18:45:00,28.8,20.2,29.92,WSW,253,10.5,13.8,70,0.00,BKN,,0.00,67.1,WeatherDisplay:10.37,2013-04-02 22:45:00,
2013-04-02 18:50:00,29.3,19.3,29.92,SW,233,8.1,12.7,66,0.00,BKN,,0.00,51.9,WeatherDisplay:10.37,2013-04-02 22:50:00,
2013-04-02 18:55:00,29.5,18.8,29.93,WSW,255,8.9,12.7,64,0.00,BKN,,0.00,57.0,WeatherDisplay:10.37,2013-04-02 22:55:00,
2013-04-02 19:00:00,30.0,18.6,29.92,West,270,4.9,15.0,62,0.00,BKN,,0.00,60.0,WeatherDisplay:10.37,2013-04-02 23:00:00,
2013-04-02 19:05:00,30.0,18.6,29.92,SW,231,6.9,11.5,62,0.00,BKN,,0.00,77.3,WeatherDisplay:10.37,2013-04-02 23:05:00,
2013-04-02 19:10:00,29.8,17.6,29.92,WNW,288,9.2,13.9,60,0.00,BKN,,0.00,29.5,WeatherDisplay:10.37,2013-04-02 23:10:00,
2013-04-02 19:15:00,30.0,17.0,29.92,SW,231,9.5,11.5,58,0.00,BKN,,0.00,22.4,WeatherDisplay:10.37,2013-04-02 23:15:00,
2013-04-02 19:20:00,30.4,17.4,29.93,WSW,253,5.7,13.3,58,0.00,BKN,,0.00,32.5,WeatherDisplay:10.37,2013-04-02 23:20:00,
2013-04-02 19:25:00,30.2,16.0,29.93,WNW,288,11.1,18.4,55,0.00,BKN,,0.00,22.4,WeatherDisplay:10.37,2013-04-02 23:25:00,
2013-04-02 19:30:00,30.2,16.0,29.93,West,263,9.1,11.0,55,0.00,BKN,,0.00,15.3,WeatherDisplay:10.37,2013-04-02 23:30:00,
2013-04-02 19:35:00,30.2,16.0,29.93,West,273,8.2,12.7,55,0.00,BKN,,0.00,10.2,WeatherDisplay:10.37,2013-04-02 23:35:00,
2013-04-02 19:40:00,30.2,15.5,29.93,WNW,284,9.2,12.7,54,0.00,BKN,,0.00,5.1,WeatherDisplay:10.37,2013-04-02 23:40:00,
2013-04-02 19:45:00,30.0,15.4,29.93,SW,234,8.5,17.3,54,0.00,BKN,,0.00,5.1,WeatherDisplay:10.37,2013-04-02 23:45:00,
2013-04-02 19:50:00,30.0,14.9,29.93,SW,227,9.8,16.1,53,0.00,BKN,,0.00,2.0,WeatherDisplay:10.37,2013-04-02 23:50:00,
2013-04-02 19:55:00,30.0,15.4,29.93,West,279,8.7,15.2,54,0.00,BKN,,0.00,0.0,WeatherDisplay:10.37,2013-04-02 23:55:00,
2013-04-02 20:01:00,29.7,15.5,29.94,WNW,284,12.3,19.6,55,0.00,BKN,,0.00,0.0,WeatherDisplay:10.37,2013-04-03 00:01:00,
2013-04-02 20:06:00,29.8,16.0,29.94,NW,305,8.0,13.8,56,0.00,BKN,,0.00,0.0,WeatherDisplay:10.37,2013-04-03 00:06:00,
2013-04-02 20:12:00,29.5,16.1,29.95,West,278,9.6,12.7,57,0.00,BKN,,0.00,0.0,WeatherDisplay:10.37,2013-04-03 00:12:00,
2013-04-02 20:17:00,29.7,16.3,29.94,WSW,247,6.2,9.2,57,0.00,BKN,,0.00,0.0,WeatherDisplay:10.37,2013-04-03 00:17:00,
2013-04-02 20:22:00,29.8,16.4,29.95,West,278,6.3,10.4,57,0.00,BKN,,0.00,0.0,WeatherDisplay:10.37,2013-04-03 00:22:00,
2013-04-02 20:27:00,29.5,16.1,29.95,West,270,7.9,12.0,57,0.00,BKN,,0.00,0.0,WeatherDisplay:10.37,2013-04-03 00:27:00,
2013-04-02 20:32:00,29.7,16.7,29.95,WNW,284,6.5,8.1,58,0.00,BKN,,0.00,0.0,WeatherDisplay:10.37,2013-04-03 00:32:00,
2013-04-02 20:38:00,29.5,16.5,29.95,West,269,5.8,10.4,58,0.00,BKN,,0.00,0.0,WeatherDisplay:10.37,2013-04-03 00:38:00,
2013-04-02 20:43:00,29.7,16.7,29.95,NW,309,5.0,7.5,58,0.00,BKN,,0.00,0.0,WeatherDisplay:10.37,2013-04-03 00:43:00,
2013-04-02 20:48:00,29.7,16.7,29.95,WNW,297,4.2,6.8,58,0.00,BKN,,0.00,0.0,WeatherDisplay:10.37,2013-04-03 00:48:00,
2013-04-02 20:53:00,29.3,16.7,29.95,West,273,7.8,10.4,59,0.00,BKN,,0.00,0.0,WeatherDisplay:10.37,2013-04-03 00:53:00,
2013-04-02 20:58:00,29.5,17.3,29.96,SW,222,5.0,8.3,60,0.00,BKN,,0.00,0.0,WeatherDisplay:10.37,2013-04-03 00:58:00,
2013-04-02 21:03:00,29.3,17.1,29.96,SW,226,4.6,9.2,60,0.00,SCT,BKN,0.00,0.0,WeatherDisplay:10.37,2013-04-03 01:03:00,
2013-04-02 21:08:00,29.1,17.3,29.96,WSW,242,4.7,6.9,61,0.00,SCT,BKN,0.00,0.0,WeatherDisplay:10.37,2013-04-03 01:08:00,
2013-04-02 21:13:00,29.5,17.7,29.96,SW,236,4.3,6.9,61,0.00,SCT,BKN,0.00,0.0,WeatherDisplay:10.37,2013-04-03 01:13:00,
2013-04-02 21:18:00,29.3,17.9,29.96,SW,231,3.7,4.6,62,0.00,SCT,BKN,0.00,0.0,WeatherDisplay:10.37,2013-04-03 01:18:00,
2013-04-02 21:23:00,28.8,19.2,29.96,SSW,197,3.8,5.1,67,0.00,SCT,BKN,0.00,0.0,WeatherDisplay:10.37,2013-04-03 01:23:00,
2013-04-02 21:28:00,28.9,21.4,29.96,SW,222,3.8,6.9,73,0.00,SCT,BKN,0.00,0.0,WeatherDisplay:10.37,2013-04-03 01:28:00,
2013-04-02 21:34:00,28.8,22.1,29.96,SW,224,4.5,5.8,76,0.00,SCT,BKN,0.00,0.0,WeatherDisplay:10.37,2013-04-03 01:34:00,
2013-04-02 21:39:00,28.8,23.4,29.96,WSW,258,6.2,8.1,80,0.00,SCT,BKN,0.00,0.0,WeatherDisplay:10.37,2013-04-03 01:39:00,
2013-04-02 21:44:00,28.8,24.0,29.96,WSW,240,4.7,6.2,82,0.00,SCT,BKN,0.00,0.0,WeatherDisplay:10.37,2013-04-03 01:44:00,
2013-04-02 21:49:00,29.1,24.6,29.96,SW,222,4.3,5.8,83,0.00,SCT,BKN,0.00,0.0,WeatherDisplay:10.37,2013-04-03 01:49:00,
2013-04-02 21:54:00,29.1,24.9,29.96,SW,226,4.3,5.8,84,0.00,SCT,BKN,0.00,0.0,WeatherDisplay:10.37,2013-04-03 01:54:00,
2013-04-02 21:59:00,28.8,24.8,29.97,SW,230,5.8,8.1,85,0.00,SCT,BKN,0.00,0.0,WeatherDisplay:10.37,2013-04-03 01:59:00,
2013-04-02 22:04:00,29.1,25.2,29.96,SW,234,5.3,5.8,85,0.00,SCT,BKN,0.00,0.0,WeatherDisplay:10.37,2013-04-03 02:04:00,
2013-04-02 22:09:00,28.9,24.7,29.97,WSW,257,4.6,5.8,84,0.00,SCT,BKN,0.00,0.0,WeatherDisplay:10.37,2013-04-03 02:09:00,
2013-04-02 22:14:00,28.9,24.7,29.97,West,260,3.2,5.8,84,0.00,SCT,BKN,0.00,0.0,WeatherDisplay:10.37,2013-04-03 02:14:00,
2013-04-02 22:21:00,28.8,24.2,29.97,WNW,300,4.5,8.1,83,0.00,SCT,BKN,0.00,0.0,WeatherDisplay:10.37,2013-04-03 02:21:00,
2013-04-02 22:26:00,28.8,24.0,29.96,SSW,211,2.9,4.6,82,0.00,SCT,BKN,0.00,0.0,WeatherDisplay:10.37,2013-04-03 02:26:00,
2013-04-02 22:31:00,28.6,23.5,29.97,SW,232,3.4,5.8,81,0.00,SCT,BKN,0.00,0.0,WeatherDisplay:10.37,2013-04-03 02:31:00,
2013-04-02 22:37:00,28.8,23.4,29.97,SW,232,3.0,5.1,80,0.00,SCT,BKN,0.00,0.0,WeatherDisplay:10.37,2013-04-03 02:37:00,
2013-04-02 22:42:00,28.8,23.4,29.96,WSW,253,2.9,5.8,80,0.00,SCT,BKN,0.00,0.0,WeatherDisplay:10.37,2013-04-03 02:42:00,
2013-04-02 22:47:00,28.6,23.2,29.97,SW,216,2.7,4.6,80,0.00,SCT,BKN,0.00,0.0,WeatherDisplay:10.37,2013-04-03 02:47:00,
2013-04-02 22:52:00,28.2,22.2,29.97,SW,232,4.3,4.6,78,0.00,SCT,BKN,0.00,0.0,WeatherDisplay:10.37,2013-04-03 02:52:00,
2013-04-02 22:57:00,28.2,21.6,29.97,SSW,210,4.7,6.9,76,0.00,SCT,BKN,0.00,0.0,WeatherDisplay:10.37,2013-04-03 02:57:00,
2013-04-02 23:02:00,28.0,21.1,29.97,West,278,5.1,8.1,75,0.00,SCT,BKN,0.00,0.0,WeatherDisplay:10.37,2013-04-03 03:02:00,
2013-04-02 23:08:00,28.2,21.3,29.97,West,259,4.9,6.9,75,0.00,SCT,BKN,0.00,0.0,WeatherDisplay:10.37,2013-04-03 03:08:00,
2013-04-02 23:13:00,28.4,21.5,29.97,WSW,240,3.8,8.1,75,0.00,SCT,BKN,0.00,0.0,WeatherDisplay:10.37,2013-04-03 03:13:00,
2013-04-02 23:18:00,28.6,21.7,29.98,WSW,252,3.7,8.1,75,0.00,SCT,BKN,0.00,0.0,WeatherDisplay:10.37,2013-04-03 03:18:00,
2013-04-02 23:23:00,28.6,21.7,29.98,West,271,3.5,8.1,75,0.00,SCT,BKN,0.00,0.0,WeatherDisplay:10.37,2013-04-03 03:23:00,
2013-04-02 23:28:00,28.6,21.7,29.98,WSW,251,5.6,9.2,75,0.00,SCT,BKN,0.00,0.0,WeatherDisplay:10.37,2013-04-03 03:28:00,
2013-04-02 23:34:00,27.3,21.4,29.98,WSW,240,5.3,12.7,78,0.00,SCT,BKN,0.00,0.0,WeatherDisplay:10.37,2013-04-03 03:34:00,
2013-04-02 23:39:00,27.5,21.8,29.98,WSW,258,4.7,8.1,79,0.00,SCT,BKN,0.00,0.0,WeatherDisplay:10.37,2013-04-03 03:39:00,
2013-04-02 23:44:00,27.7,21.4,29.97,West,271,4.9,9.2,77,0.00,SCT,BKN,0.00,0.0,WeatherDisplay:10.37,2013-04-03 03:44:00,
2013-04-02 23:49:00,27.7,20.8,29.97,West,268,3.4,5.8,75,0.00,SCT,BKN,0.00,0.0,WeatherDisplay:10.37,2013-04-03 03:49:00,
2013-04-02 23:54:00,27.7,20.5,29.97,West,274,4.5,5.8,74,0.00,SCT,BKN,0.00,0.0,WeatherDisplay:10.37,2013-04-03 03:54:00,